sensor_id;sensor_type;location;lat;lon;timestamp;P1;durP1;ratioP1;P2;durP2;ratioP2
56593;SDS011;42474;51.660;5.824;2023-04-01T00:00:44;4.2;;;1.4;;
56593;SDS011;42474;51.660;5.824;2023-04-01T00:05:44;2.6;;;1.2;;
56593;SDS011;42474;51.660;5.824;2023-04-01T00:10:44;2.1;;;1.3;;
56593;SDS011;42474;51.660;5.824;2023-04-01T00:15:43;3.7;;;1.3;;
56593;SDS011;42474;51.660;5.824;2023-04-01T00:20:44;3.7;;;1.1;;
56593;SDS011;42474;51.660;5.824;2023-04-01T00:25:45;3.7;;;1.7;;
56593;SDS011;42474;51.660;5.824;2023-04-01T00:30:43;1.9;;;0.9;;
56593;SDS011;42474;51.660;5.824;2023-04-01T00:35:43;4.0;;;1.1;;
56593;SDS011;42474;51.660;5.824;2023-04-01T00:40:45;2.7;;;1.0;;
56593;SDS011;42474;51.660;5.824;2023-04-01T00:45:43;3.8;;;1.1;;
56593;SDS011;42474;51.660;5.824;2023-04-01T00:50:44;1.8;;;1.2;;
56593;SDS011;42474;51.660;5.824;2023-04-01T01:00:43;2.0;;;1.3;;
56593;SDS011;42474;51.660;5.824;2023-04-01T01:05:59;1.8;;;1.4;;
56593;SDS011;42474;51.660;5.824;2023-04-01T01:10:50;3.4;;;1.5;;
56593;SDS011;42474;51.660;5.824;2023-04-01T01:15:58;2.1;;;1.5;;
56593;SDS011;42474;51.660;5.824;2023-04-01T01:21:44;3.0;;;1.6;;
56593;SDS011;42474;51.660;5.824;2023-04-01T01:27:04;3.2;;;1.9;;
56593;SDS011;42474;51.660;5.824;2023-04-01T01:31:07;3.8;;;2.2;;
56593;SDS011;42474;51.660;5.824;2023-04-01T01:35:51;3.5;;;2.1;;
56593;SDS011;42474;51.660;5.824;2023-04-01T01:40:48;4.1;;;2.3;;
56593;SDS011;42474;51.660;5.824;2023-04-01T01:45:44;3.6;;;2.5;;
56593;SDS011;42474;51.660;5.824;2023-04-01T01:50:43;3.3;;;2.3;;
56593;SDS011;42474;51.660;5.824;2023-04-01T01:55:44;3.8;;;2.8;;
56593;SDS011;42474;51.660;5.824;2023-04-01T02:00:46;3.1;;;2.8;;
56593;SDS011;42474;51.660;5.824;2023-04-01T02:05:44;3.5;;;2.6;;
56593;SDS011;42474;51.660;5.824;2023-04-01T02:10:45;3.8;;;3.1;;
56593;SDS011;42474;51.660;5.824;2023-04-01T02:15:49;4.6;;;3.1;;
56593;SDS011;42474;51.660;5.824;2023-04-01T02:20:44;5.1;;;3.7;;
56593;SDS011;42474;51.660;5.824;2023-04-01T02:25:44;4.5;;;3.3;;
56593;SDS011;42474;51.660;5.824;2023-04-01T02:30:44;4.6;;;3.7;;
56593;SDS011;42474;51.660;5.824;2023-04-01T02:35:43;5.3;;;4.2;;
56593;SDS011;42474;51.660;5.824;2023-04-01T02:40:48;6.5;;;4.5;;
56593;SDS011;42474;51.660;5.824;2023-04-01T02:45:43;6.3;;;4.6;;
56593;SDS011;42474;51.660;5.824;2023-04-01T02:50:43;5.8;;;4.0;;
56593;SDS011;42474;51.660;5.824;2023-04-01T02:55:43;5.3;;;3.9;;
56593;SDS011;42474;51.660;5.824;2023-04-01T03:00:43;4.6;;;3.7;;
56593;SDS011;42474;51.660;5.824;2023-04-01T03:05:43;6.2;;;4.0;;
56593;SDS011;42474;51.660;5.824;2023-04-01T03:10:43;5.8;;;4.2;;
56593;SDS011;42474;51.660;5.824;2023-04-01T03:15:43;6.6;;;4.6;;
56593;SDS011;42474;51.660;5.824;2023-04-01T03:20:44;8.7;;;4.9;;
56593;SDS011;42474;51.660;5.824;2023-04-01T03:25:43;9.1;;;5.7;;
56593;SDS011;42474;51.660;5.824;2023-04-01T03:30:43;7.4;;;5.3;;
56593;SDS011;42474;51.660;5.824;2023-04-01T03:35:43;7.2;;;5.4;;
56593;SDS011;42474;51.660;5.824;2023-04-01T03:40:44;7.6;;;5.2;;
56593;SDS011;42474;51.660;5.824;2023-04-01T03:45:44;8.1;;;5.5;;
56593;SDS011;42474;51.660;5.824;2023-04-01T03:50:44;10.7;;;6.2;;
56593;SDS011;42474;51.660;5.824;2023-04-01T03:55:43;9.1;;;5.9;;
56593;SDS011;42474;51.660;5.824;2023-04-01T04:00:43;9.2;;;6.2;;
56593;SDS011;42474;51.660;5.824;2023-04-01T04:05:46;11.1;;;6.1;;
56593;SDS011;42474;51.660;5.824;2023-04-01T04:10:44;8.3;;;5.7;;
56593;SDS011;42474;51.660;5.824;2023-04-01T04:15:43;8.9;;;4.9;;
56593;SDS011;42474;51.660;5.824;2023-04-01T04:20:43;7.2;;;5.0;;
56593;SDS011;42474;51.660;5.824;2023-04-01T04:25:52;7.8;;;4.8;;
56593;SDS011;42474;51.660;5.824;2023-04-01T04:30:43;6.1;;;4.2;;
56593;SDS011;42474;51.660;5.824;2023-04-01T04:35:43;6.1;;;3.6;;
56593;SDS011;42474;51.660;5.824;2023-04-01T04:45:43;4.1;;;3.0;;
56593;SDS011;42474;51.660;5.824;2023-04-01T04:55:43;5.0;;;3.6;;
56593;SDS011;42474;51.660;5.824;2023-04-01T05:00:44;4.4;;;3.3;;
56593;SDS011;42474;51.660;5.824;2023-04-01T05:05:49;3.9;;;3.4;;
56593;SDS011;42474;51.660;5.824;2023-04-01T05:10:43;3.6;;;2.8;;
56593;SDS011;42474;51.660;5.824;2023-04-01T05:15:44;4.0;;;3.1;;
56593;SDS011;42474;51.660;5.824;2023-04-01T05:20:45;4.3;;;3.1;;
56593;SDS011;42474;51.660;5.824;2023-04-01T05:25:43;4.1;;;3.2;;
56593;SDS011;42474;51.660;5.824;2023-04-01T05:30:44;4.2;;;3.1;;
56593;SDS011;42474;51.660;5.824;2023-04-01T05:35:44;6.3;;;3.9;;
56593;SDS011;42474;51.660;5.824;2023-04-01T05:40:44;5.5;;;3.9;;
56593;SDS011;42474;51.660;5.824;2023-04-01T05:45:44;6.3;;;4.2;;
56593;SDS011;42474;51.660;5.824;2023-04-01T05:50:44;4.8;;;3.6;;
56593;SDS011;42474;51.660;5.824;2023-04-01T05:55:44;7.0;;;4.7;;
56593;SDS011;42474;51.660;5.824;2023-04-01T06:00:44;6.5;;;5.0;;
56593;SDS011;42474;51.660;5.824;2023-04-01T06:05:44;7.4;;;5.0;;
56593;SDS011;42474;51.660;5.824;2023-04-01T06:10:55;6.8;;;5.3;;
56593;SDS011;42474;51.660;5.824;2023-04-01T06:16:00;7.5;;;5.8;;
56593;SDS011;42474;51.660;5.824;2023-04-01T06:21:01;8.3;;;5.7;;
56593;SDS011;42474;51.660;5.824;2023-04-01T06:26:20;9.5;;;6.9;;
56593;SDS011;42474;51.660;5.824;2023-04-01T06:31:32;11.6;;;7.5;;
56593;SDS011;42474;51.660;5.824;2023-04-01T06:36:32;11.2;;;7.8;;
56593;SDS011;42474;51.660;5.824;2023-04-01T06:41:53;11.6;;;8.0;;
56593;SDS011;42474;51.660;5.824;2023-04-01T06:46:47;11.9;;;7.6;;
56593;SDS011;42474;51.660;5.824;2023-04-01T06:52:15;12.4;;;7.9;;
56593;SDS011;42474;51.660;5.824;2023-04-01T06:55:56;12.2;;;7.9;;
56593;SDS011;42474;51.660;5.824;2023-04-01T07:00:44;12.1;;;7.7;;
56593;SDS011;42474;51.660;5.824;2023-04-01T07:05:44;11.8;;;7.2;;
56593;SDS011;42474;51.660;5.824;2023-04-01T07:10:52;12.0;;;7.4;;
56593;SDS011;42474;51.660;5.824;2023-04-01T07:15:45;11.5;;;7.3;;
56593;SDS011;42474;51.660;5.824;2023-04-01T07:20:43;10.2;;;6.5;;
56593;SDS011;42474;51.660;5.824;2023-04-01T07:25:44;11.8;;;6.5;;
56593;SDS011;42474;51.660;5.824;2023-04-01T07:31:13;12.9;;;7.0;;
56593;SDS011;42474;51.660;5.824;2023-04-01T07:35:48;12.1;;;6.6;;
56593;SDS011;42474;51.660;5.824;2023-04-01T07:41:30;12.7;;;7.1;;
56593;SDS011;42474;51.660;5.824;2023-04-01T07:46:50;13.6;;;7.8;;
56593;SDS011;42474;51.660;5.824;2023-04-01T07:51:03;14.9;;;7.4;;
56593;SDS011;42474;51.660;5.824;2023-04-01T07:56:06;11.3;;;7.5;;
56593;SDS011;42474;51.660;5.824;2023-04-01T08:00:53;12.4;;;7.3;;
56593;SDS011;42474;51.660;5.824;2023-04-01T08:06:06;12.0;;;7.5;;
56593;SDS011;42474;51.660;5.824;2023-04-01T08:10:57;13.4;;;7.2;;
56593;SDS011;42474;51.660;5.824;2023-04-01T08:16:09;11.9;;;6.7;;
56593;SDS011;42474;51.660;5.824;2023-04-01T08:20:48;12.5;;;6.6;;
56593;SDS011;42474;51.660;5.824;2023-04-01T08:25:52;11.2;;;6.8;;
56593;SDS011;42474;51.660;5.824;2023-04-01T08:30:52;10.1;;;6.2;;
56593;SDS011;42474;51.660;5.824;2023-04-01T08:35:48;7.8;;;5.2;;
56593;SDS011;42474;51.660;5.824;2023-04-01T08:40:59;7.7;;;4.7;;
56593;SDS011;42474;51.660;5.824;2023-04-01T08:45:56;8.1;;;4.6;;
56593;SDS011;42474;51.660;5.824;2023-04-01T08:51:03;6.6;;;4.4;;
56593;SDS011;42474;51.660;5.824;2023-04-01T08:56:18;8.2;;;4.6;;
56593;SDS011;42474;51.660;5.824;2023-04-01T09:01:26;7.4;;;4.9;;
56593;SDS011;42474;51.660;5.824;2023-04-01T09:07:26;9.5;;;5.5;;
56593;SDS011;42474;51.660;5.824;2023-04-01T09:13:18;9.8;;;5.3;;
56593;SDS011;42474;51.660;5.824;2023-04-01T09:18:47;8.6;;;5.2;;
56593;SDS011;42474;51.660;5.824;2023-04-01T09:25:15;9.7;;;5.5;;
56593;SDS011;42474;51.660;5.824;2023-04-01T09:29:37;10.6;;;6.0;;
56593;SDS011;42474;51.660;5.824;2023-04-01T09:36:12;10.2;;;5.7;;
56593;SDS011;42474;51.660;5.824;2023-04-01T09:40:31;11.3;;;6.9;;
56593;SDS011;42474;51.660;5.824;2023-04-01T09:45:41;10.3;;;6.2;;
56593;SDS011;42474;51.660;5.824;2023-04-01T09:51:06;12.2;;;7.4;;
56593;SDS011;42474;51.660;5.824;2023-04-01T09:57:37;12.8;;;8.0;;
56593;SDS011;42474;51.660;5.824;2023-04-01T10:05:43;13.1;;;7.6;;
56593;SDS011;42474;51.660;5.824;2023-04-01T10:13:20;11.8;;;7.2;;
56593;SDS011;42474;51.660;5.824;2023-04-01T10:20:56;13.0;;;7.0;;
56593;SDS011;42474;51.660;5.824;2023-04-01T10:27:29;12.6;;;7.1;;
56593;SDS011;42474;51.660;5.824;2023-04-01T10:34:19;12.0;;;6.6;;
56593;SDS011;42474;51.660;5.824;2023-04-01T10:40:48;9.9;;;6.5;;
56593;SDS011;42474;51.660;5.824;2023-04-01T10:48:21;11.4;;;6.9;;
56593;SDS011;42474;51.660;5.824;2023-04-01T10:55:00;9.0;;;5.7;;
56593;SDS011;42474;51.660;5.824;2023-04-01T11:01:22;7.7;;;5.3;;
56593;SDS011;42474;51.660;5.824;2023-04-01T11:11:47;7.9;;;5.4;;
56593;SDS011;42474;51.660;5.824;2023-04-01T11:19:08;8.7;;;5.9;;
56593;SDS011;42474;51.660;5.824;2023-04-01T11:25:39;8.6;;;5.6;;
56593;SDS011;42474;51.660;5.824;2023-04-01T11:31:13;9.5;;;5.7;;
56593;SDS011;42474;51.660;5.824;2023-04-01T11:36:09;10.1;;;5.8;;
56593;SDS011;42474;51.660;5.824;2023-04-01T11:41:38;9.5;;;5.8;;
56593;SDS011;42474;51.660;5.824;2023-04-01T11:45:53;8.8;;;5.5;;
56593;SDS011;42474;51.660;5.824;2023-04-01T11:50:42;8.7;;;5.2;;
56593;SDS011;42474;51.660;5.824;2023-04-01T11:56:27;8.0;;;5.2;;
56593;SDS011;42474;51.660;5.824;2023-04-01T12:01:37;8.4;;;5.1;;
56593;SDS011;42474;51.660;5.824;2023-04-01T12:06:41;7.7;;;4.5;;
56593;SDS011;42474;51.660;5.824;2023-04-01T12:11:29;7.3;;;4.6;;
56593;SDS011;42474;51.660;5.824;2023-04-01T12:16:41;6.0;;;3.9;;
56593;SDS011;42474;51.660;5.824;2023-04-01T12:21:03;5.3;;;3.6;;
56593;SDS011;42474;51.660;5.824;2023-04-01T12:26:40;5.4;;;3.9;;
56593;SDS011;42474;51.660;5.824;2023-04-01T12:31:38;7.6;;;4.7;;
56593;SDS011;42474;51.660;5.824;2023-04-01T12:37:00;7.7;;;4.6;;
56593;SDS011;42474;51.660;5.824;2023-04-01T12:42:42;8.0;;;5.0;;
56593;SDS011;42474;51.660;5.824;2023-04-01T12:48:16;8.2;;;5.2;;
56593;SDS011;42474;51.660;5.824;2023-04-01T12:53:49;8.6;;;5.4;;
56593;SDS011;42474;51.660;5.824;2023-04-01T12:59:16;8.4;;;5.8;;
56593;SDS011;42474;51.660;5.824;2023-04-01T13:06:03;11.3;;;6.3;;
56593;SDS011;42474;51.660;5.824;2023-04-01T13:11:02;9.3;;;5.6;;
56593;SDS011;42474;51.660;5.824;2023-04-01T13:16:42;7.5;;;4.5;;
56593;SDS011;42474;51.660;5.824;2023-04-01T13:21:50;8.6;;;4.7;;
56593;SDS011;42474;51.660;5.824;2023-04-01T13:27:12;6.8;;;4.0;;
56593;SDS011;42474;51.660;5.824;2023-04-01T13:30:52;5.8;;;3.7;;
56593;SDS011;42474;51.660;5.824;2023-04-01T13:35:57;4.9;;;3.5;;
56593;SDS011;42474;51.660;5.824;2023-04-01T13:42:14;5.5;;;3.9;;
56593;SDS011;42474;51.660;5.824;2023-04-01T13:46:22;6.6;;;3.9;;
56593;SDS011;42474;51.660;5.824;2023-04-01T13:52:33;4.7;;;3.7;;
56593;SDS011;42474;51.660;5.824;2023-04-01T13:57:31;5.6;;;3.8;;
56593;SDS011;42474;51.660;5.824;2023-04-01T14:02:51;4.9;;;3.7;;
56593;SDS011;42474;51.660;5.824;2023-04-01T14:07:47;4.4;;;3.4;;
56593;SDS011;42474;51.660;5.824;2023-04-01T14:13:09;4.6;;;3.5;;
56593;SDS011;42474;51.660;5.824;2023-04-01T14:18:42;5.2;;;3.8;;
56593;SDS011;42474;51.660;5.824;2023-04-01T14:24:14;6.6;;;4.0;;
56593;SDS011;42474;51.660;5.824;2023-04-01T14:34:55;5.4;;;3.7;;
56593;SDS011;42474;51.660;5.824;2023-04-01T14:40:26;6.4;;;4.0;;
56593;SDS011;42474;51.660;5.824;2023-04-01T14:46:22;5.9;;;3.5;;
56593;SDS011;42474;51.660;5.824;2023-04-01T14:52:13;6.9;;;4.7;;
56593;SDS011;42474;51.660;5.824;2023-04-01T14:55:00;6.0;;;4.4;;
56593;SDS011;42474;51.660;5.824;2023-04-01T14:56:08;5.8;;;4.6;;
56593;SDS011;42474;51.660;5.824;2023-04-01T14:57:34;5.4;;;4.0;;
56593;SDS011;42474;51.660;5.824;2023-04-01T14:57:39;5.6;;;4.6;;
56593;SDS011;42474;51.660;5.824;2023-04-01T14:58:44;5.5;;;4.0;;
56593;SDS011;42474;51.660;5.824;2023-04-01T14:59:31;6.5;;;4.3;;
56593;SDS011;42474;51.660;5.824;2023-04-01T15:00:22;6.6;;;4.7;;
56593;SDS011;42474;51.660;5.824;2023-04-01T15:03:53;6.6;;;4.5;;
56593;SDS011;42474;51.660;5.824;2023-04-01T15:09:09;7.1;;;4.7;;
56593;SDS011;42474;51.660;5.824;2023-04-01T15:15:14;8.5;;;5.3;;
56593;SDS011;42474;51.660;5.824;2023-04-01T15:20:22;8.3;;;5.7;;
56593;SDS011;42474;51.660;5.824;2023-04-01T15:26:31;8.2;;;5.5;;
56593;SDS011;42474;51.660;5.824;2023-04-01T15:31:35;8.7;;;5.6;;
56593;SDS011;42474;51.660;5.824;2023-04-01T15:37:00;7.6;;;5.7;;
56593;SDS011;42474;51.660;5.824;2023-04-01T15:41:21;8.7;;;5.7;;
56593;SDS011;42474;51.660;5.824;2023-04-01T15:43:54;7.9;;;5.1;;
56593;SDS011;42474;51.660;5.824;2023-04-01T15:43:57;7.1;;;5.1;;
56593;SDS011;42474;51.660;5.824;2023-04-01T15:44:02;6.9;;;5.0;;
56593;SDS011;42474;51.660;5.824;2023-04-01T15:46:52;8.0;;;5.3;;
56593;SDS011;42474;51.660;5.824;2023-04-01T15:51:07;8.1;;;5.8;;
56593;SDS011;42474;51.660;5.824;2023-04-01T15:55:54;8.7;;;6.0;;
56593;SDS011;42474;51.660;5.824;2023-04-01T16:01:39;8.5;;;6.0;;
56593;SDS011;42474;51.660;5.824;2023-04-01T16:06:50;9.8;;;6.0;;
56593;SDS011;42474;51.660;5.824;2023-04-01T16:12:56;7.5;;;5.6;;
56593;SDS011;42474;51.660;5.824;2023-04-01T16:18:31;7.1;;;5.5;;
56593;SDS011;42474;51.660;5.824;2023-04-01T16:23:01;10.5;;;5.8;;
56593;SDS011;42474;51.660;5.824;2023-04-01T16:26:54;8.3;;;5.9;;
56593;SDS011;42474;51.660;5.824;2023-04-01T16:31:38;7.9;;;5.5;;
56593;SDS011;42474;51.660;5.824;2023-04-01T16:35:59;8.1;;;5.6;;
56593;SDS011;42474;51.660;5.824;2023-04-01T16:41:11;8.6;;;5.9;;
56593;SDS011;42474;51.660;5.824;2023-04-01T16:45:45;8.1;;;5.9;;
56593;SDS011;42474;51.660;5.824;2023-04-01T16:50:44;8.3;;;5.5;;
56593;SDS011;42474;51.660;5.824;2023-04-01T16:55:48;7.8;;;5.7;;
56593;SDS011;42474;51.660;5.824;2023-04-01T17:01:03;8.6;;;5.5;;
56593;SDS011;42474;51.660;5.824;2023-04-01T17:05:46;7.7;;;5.1;;
56593;SDS011;42474;51.660;5.824;2023-04-01T17:12:03;7.8;;;5.2;;
56593;SDS011;42474;51.660;5.824;2023-04-01T17:16:27;7.5;;;5.2;;
56593;SDS011;42474;51.660;5.824;2023-04-01T17:21:07;4.3;;;3.0;;
56593;SDS011;42474;51.660;5.824;2023-04-01T17:26:06;3.4;;;2.6;;
56593;SDS011;42474;51.660;5.824;2023-04-01T17:31:21;2.1;;;1.8;;
56593;SDS011;42474;51.660;5.824;2023-04-01T17:36:19;2.2;;;1.9;;
56593;SDS011;42474;51.660;5.824;2023-04-01T17:41:24;2.3;;;2.0;;
56593;SDS011;42474;51.660;5.824;2023-04-01T17:45:50;2.8;;;2.2;;
56593;SDS011;42474;51.660;5.824;2023-04-01T17:50:53;3.0;;;2.5;;
56593;SDS011;42474;51.660;5.824;2023-04-01T17:56:29;3.3;;;2.7;;
56593;SDS011;42474;51.660;5.824;2023-04-01T18:01:19;2.7;;;2.1;;
56593;SDS011;42474;51.660;5.824;2023-04-01T18:06:47;2.9;;;2.2;;
56593;SDS011;42474;51.660;5.824;2023-04-01T18:12:15;2.8;;;2.3;;
56593;SDS011;42474;51.660;5.824;2023-04-01T18:17:42;3.3;;;2.7;;
56593;SDS011;42474;51.660;5.824;2023-04-01T18:22:44;4.0;;;2.6;;
56593;SDS011;42474;51.660;5.824;2023-04-01T18:26:05;3.4;;;2.8;;
56593;SDS011;42474;51.660;5.824;2023-04-01T18:30:44;5.5;;;3.4;;
56593;SDS011;42474;51.660;5.824;2023-04-01T18:35:58;5.0;;;3.9;;
56593;SDS011;42474;51.660;5.824;2023-04-01T18:40:45;4.0;;;3.2;;
56593;SDS011;42474;51.660;5.824;2023-04-01T18:45:45;4.8;;;3.7;;
56593;SDS011;42474;51.660;5.824;2023-04-01T18:50:51;5.1;;;3.8;;
56593;SDS011;42474;51.660;5.824;2023-04-01T18:55:53;4.8;;;3.9;;
56593;SDS011;42474;51.660;5.824;2023-04-01T19:01:11;5.7;;;4.2;;
56593;SDS011;42474;51.660;5.824;2023-04-01T19:05:45;6.8;;;4.4;;
56593;SDS011;42474;51.660;5.824;2023-04-01T19:10:55;5.9;;;4.5;;
56593;SDS011;42474;51.660;5.824;2023-04-01T19:16:09;6.2;;;5.1;;
56593;SDS011;42474;51.660;5.824;2023-04-01T19:21:16;7.0;;;5.1;;
56593;SDS011;42474;51.660;5.824;2023-04-01T19:26:00;6.9;;;5.5;;
56593;SDS011;42474;51.660;5.824;2023-04-01T19:30:59;7.7;;;5.5;;
56593;SDS011;42474;51.660;5.824;2023-04-01T19:36:19;7.7;;;5.4;;
56593;SDS011;42474;51.660;5.824;2023-04-01T19:40:53;7.4;;;5.3;;
56593;SDS011;42474;51.660;5.824;2023-04-01T19:46:23;7.6;;;5.5;;
56593;SDS011;42474;51.660;5.824;2023-04-01T19:51:07;7.2;;;5.6;;
56593;SDS011;42474;51.660;5.824;2023-04-01T19:55:53;6.9;;;4.9;;
56593;SDS011;42474;51.660;5.824;2023-04-01T20:00:46;5.9;;;4.6;;
56593;SDS011;42474;51.660;5.824;2023-04-01T20:06:00;7.4;;;5.1;;
56593;SDS011;42474;51.660;5.824;2023-04-01T20:11:01;6.3;;;4.9;;
56593;SDS011;42474;51.660;5.824;2023-04-01T20:15:44;7.3;;;5.8;;
56593;SDS011;42474;51.660;5.824;2023-04-01T20:20:53;7.8;;;6.1;;
56593;SDS011;42474;51.660;5.824;2023-04-01T20:25:54;8.3;;;6.4;;
56593;SDS011;42474;51.660;5.824;2023-04-01T20:31:10;7.9;;;5.6;;
56593;SDS011;42474;51.660;5.824;2023-04-01T20:36:21;6.6;;;5.3;;
56593;SDS011;42474;51.660;5.824;2023-04-01T20:41:03;6.8;;;5.5;;
56593;SDS011;42474;51.660;5.824;2023-04-01T20:45:55;6.4;;;5.0;;
56593;SDS011;42474;51.660;5.824;2023-04-01T20:50:59;5.2;;;4.5;;
56593;SDS011;42474;51.660;5.824;2023-04-01T20:56:23;6.5;;;5.3;;
56593;SDS011;42474;51.660;5.824;2023-04-01T21:01:15;8.4;;;5.8;;
56593;SDS011;42474;51.660;5.824;2023-04-01T21:06:57;7.2;;;5.5;;
56593;SDS011;42474;51.660;5.824;2023-04-01T21:11:28;7.6;;;6.3;;
56593;SDS011;42474;51.660;5.824;2023-04-01T21:16:33;6.3;;;4.8;;
56593;SDS011;42474;51.660;5.824;2023-04-01T21:22:18;7.2;;;5.7;;
56593;SDS011;42474;51.660;5.824;2023-04-01T21:27:13;8.0;;;6.4;;
56593;SDS011;42474;51.660;5.824;2023-04-01T21:33:02;8.1;;;6.2;;
56593;SDS011;42474;51.660;5.824;2023-04-01T21:38:23;8.4;;;6.6;;
56593;SDS011;42474;51.660;5.824;2023-04-01T21:44:43;9.6;;;6.9;;
56593;SDS011;42474;51.660;5.824;2023-04-01T21:51:39;8.0;;;6.3;;
56593;SDS011;42474;51.660;5.824;2023-04-01T21:59:46;7.4;;;5.9;;
56593;SDS011;42474;51.660;5.824;2023-04-01T22:05:11;7.3;;;5.8;;
56593;SDS011;42474;51.660;5.824;2023-04-01T22:08:56;7.7;;;6.2;;
56593;SDS011;42474;51.660;5.824;2023-04-01T22:13:39;7.8;;;6.4;;
56593;SDS011;42474;51.660;5.824;2023-04-01T22:17:41;7.3;;;6.0;;
56593;SDS011;42474;51.660;5.824;2023-04-01T22:22:34;7.6;;;5.9;;
56593;SDS011;42474;51.660;5.824;2023-04-01T22:26:58;7.4;;;5.8;;
56593;SDS011;42474;51.660;5.824;2023-04-01T22:31:00;6.2;;;5.1;;
56593;SDS011;42474;51.660;5.824;2023-04-01T22:35:10;6.0;;;5.1;;
56593;SDS011;42474;51.660;5.824;2023-04-01T22:40:37;6.5;;;4.8;;
56593;SDS011;42474;51.660;5.824;2023-04-01T22:43:57;6.7;;;5.1;;
56593;SDS011;42474;51.660;5.824;2023-04-01T22:46:40;5.9;;;4.5;;
56593;SDS011;42474;51.660;5.824;2023-04-01T22:51:07;6.0;;;4.9;;
56593;SDS011;42474;51.660;5.824;2023-04-01T22:55:44;5.9;;;5.1;;
56593;SDS011;42474;51.660;5.824;2023-04-01T23:00:47;5.7;;;4.6;;
56593;SDS011;42474;51.660;5.824;2023-04-01T23:05:57;5.8;;;4.8;;
56593;SDS011;42474;51.660;5.824;2023-04-01T23:10:50;6.5;;;5.2;;
56593;SDS011;42474;51.660;5.824;2023-04-01T23:20:54;7.6;;;6.2;;
56593;SDS011;42474;51.660;5.824;2023-04-01T23:26:02;6.1;;;5.1;;
56593;SDS011;42474;51.660;5.824;2023-04-01T23:30:53;6.1;;;5.0;;
56593;SDS011;42474;51.660;5.824;2023-04-01T23:35:46;6.0;;;4.1;;
56593;SDS011;42474;51.660;5.824;2023-04-01T23:40:44;5.1;;;4.5;;
56593;SDS011;42474;51.660;5.824;2023-04-01T23:45:44;5.9;;;5.3;;
56593;SDS011;42474;51.660;5.824;2023-04-01T23:50:44;6.4;;;5.3;;
56593;SDS011;42474;51.660;5.824;2023-04-01T23:55:46;7.2;;;5.4;;
